CheckWX is a tool to help pilots better visualize weather data.  It is not intended as a substitute for an official pre-flight weather briefing.

22:19:17 UTC

FKYS METAR
Yaoundé Nsimalen International Airport
Yaoundé, Cameroon
Current

1 hour ago

FKYS 222100Z 00000KT 6000 NSC 19/17 Q1016 NOSIG
Observed
Jan-22 @ 21:00 UTC
Visibility
6,000 meters
Flight Rules
MVFR
Cloud Levels
  • Clear skies
Temperature
19°C / 66°F
Dewpoint
17°C / 63°F
Humidity
88%
Altimeter
30" Hg
Pressure
1015.92 hPa
Previous

2 hours ago

FKYS 222000Z VRB02KT 6000 NSC 20/17 Q1016 NOSIG
Observed
Jan-22 @ 20:00 UTC
Wind
  • Variable at 2 KTS
Visibility
6,000 meters
Flight Rules
MVFR
Cloud Levels
  • Clear skies
Temperature
20°C / 68°F
Dewpoint
17°C / 63°F
Humidity
83%
Altimeter
30" Hg
Pressure
1015.92 hPa
Previous

3 hours ago

FKYS 221900Z 00000KT 6000 NSC 22/17 Q//// NOSIG
Observed
Jan-22 @ 19:00 UTC
Visibility
6,000 meters
Flight Rules
MVFR
Cloud Levels
  • Clear skies
Temperature
22°C / 72°F
Dewpoint
17°C / 63°F
Humidity
73%